Time;durP1;ratioP1;P1;durP2;ratioP2;P2;SDS_P1;SDS_P2;PMS_P1;PMS_P2;Temp;Humidity;BMP_temperature;BMP_pressure;BME280_temperature;BME280_humidity;BME280_pressure;Samples;Min_cycle;Max_cycle;Signal;HPM_P1;HPM_P2
2022/05/16 00:00:31;;;;;;;6.82;1.45;;;17.70;70.00;;;;;;5031833;28;20056;-80
2022/05/16 00:03:03;;;;;;;3.60;0.82;;;17.60;70.00;;;;;;5031136;28;20468;-80
2022/05/16 00:05:32;;;;;;;9.48;1.35;;;17.60;70.10;;;;;;5040153;28;20035;-80
2022/05/16 00:07:58;;;;;;;3.65;1.05;;;17.50;70.30;;;;;;5046475;28;20028;-81
2022/05/16 00:10:29;;;;;;;6.55;1.10;;;17.50;70.40;;;;;;5067362;28;20028;-81
2022/05/16 00:13:04;;;;;;;9.52;2.00;;;17.40;70.70;;;;;;5029998;28;20388;-81
2022/05/16 00:15:32;;;;;;;7.53;1.63;;;17.40;71.10;;;;;;5070239;28;20032;-80
2022/05/16 00:17:59;;;;;;;8.55;1.17;;;17.40;71.30;;;;;;5062950;28;20044;-80
2022/05/16 00:20:25;;;;;;;6.30;1.67;;;17.30;71.40;;;;;;5048213;28;20048;-80
2022/05/16 00:22:52;;;;;;;4.80;1.20;;;17.30;71.30;;;;;;5034377;28;20032;-80
2022/05/16 00:25:20;;;;;;;5.93;1.23;;;17.30;71.50;;;;;;5049406;28;20388;-80
2022/05/16 00:27:50;;;;;;;7.25;1.33;;;17.20;71.70;;;;;;5033376;28;20029;-80
2022/05/16 00:30:22;;;;;;;6.80;1.40;;;17.10;71.70;;;;;;5046496;28;20056;-80
2022/05/16 00:32:52;;;;;;;5.53;1.35;;;17.10;72.30;;;;;;5051940;28;20348;-80
2022/05/16 00:35:21;;;;;;;8.57;1.63;;;17.10;72.30;;;;;;5047504;28;20028;-80
2022/05/16 00:37:48;;;;;;;5.95;1.60;;;17.10;72.80;;;;;;5014481;28;20029;-80
2022/05/16 00:40:21;;;;;;;7.72;1.73;;;17.00;73.20;;;;;;5001216;28;20072;-80
2022/05/16 00:42:58;;;;;;;7.47;1.17;;;17.00;73.40;;;;;;5048054;28;20020;-80
2022/05/16 00:45:27;;;;;;;6.53;1.40;;;17.00;73.60;;;;;;5066396;28;20066;-80
2022/05/16 00:47:59;;;;;;;8.93;1.67;;;17.00;73.60;;;;;;5048198;28;20031;-80
2022/05/16 00:50:28;;;;;;;;;;;16.90;73.60;;;;;;5047057;28;20032;-80
2022/05/16 00:52:58;;;;;;;7.18;1.33;;;16.90;73.50;;;;;;5050209;28;19904;-80
2022/05/16 00:55:31;;;;;;;7.80;1.40;;;16.90;73.80;;;;;;5052252;28;20031;-80
2022/05/16 00:58:04;;;;;;;6.32;1.30;;;16.80;73.90;;;;;;5039957;28;20031;-80
2022/05/16 01:00:31;;;;;;;;;;;16.80;74.10;;;;;;5030861;28;20376;-80
2022/05/16 01:06:12;;;;;;;6.65;1.25;;;16.80;75.20;;;;;;4945612;28;20055;-80
2022/05/16 01:08:45;;;;;;;9.43;1.75;;;16.70;75.00;;;;;;4915694;28;20446;-80
2022/05/16 01:11:14;;;;;;;5.75;1.23;;;16.70;75.20;;;;;;4979992;28;20037;-80
2022/05/16 01:13:40;;;;;;;4.75;1.20;;;16.70;75.30;;;;;;5011917;28;20052;-80
2022/05/16 01:16:07;;;;;;;7.80;1.50;;;16.60;75.70;;;;;;5042438;28;20056;-80
2022/05/16 01:18:33;;;;;;;6.38;1.52;;;16.60;75.90;;;;;;5008870;28;20424;-80
2022/05/16 01:21:19;;;;;;;11.43;1.85;;;16.60;76.10;;;;;;5027689;28;20035;-80
2022/05/16 01:23:49;;;;;;;4.43;1.17;;;16.60;76.50;;;;;;5042340;28;20025;-80
2022/05/16 01:26:22;;;;;;;10.95;1.70;;;16.60;76.40;;;;;;5024712;28;20037;-80
2022/05/16 01:28:48;;;;;;;7.25;1.30;;;16.60;76.70;;;;;;5030123;28;20041;-80
2022/05/16 01:31:15;;;;;;;6.88;1.40;;;16.60;76.60;;;;;;5027507;28;20472;-81
2022/05/16 01:33:41;;;;;;;5.25;1.25;;;16.60;77.10;;;;;;5015686;28;20750;-81
2022/05/16 01:36:09;;;;;;;3.08;1.00;;;16.50;76.90;;;;;;5041872;28;20354;-80
2022/05/16 01:38:36;;;;;;;13.32;2.15;;;16.50;77.00;;;;;;5026192;28;20039;-80
2022/05/16 01:41:12;;;;;;;5.55;1.27;;;16.50;77.20;;;;;;5043834;28;20052;-80
2022/05/16 01:43:44;;;;;;;6.55;1.40;;;16.50;77.20;;;;;;5028210;28;20024;-80
2022/05/16 01:46:13;;;;;;;8.50;1.50;;;16.50;77.20;;;;;;5032961;28;20461;-80
2022/05/16 01:48:40;;;;;;;6.93;1.35;;;16.50;77.30;;;;;;5025180;28;21282;-78
2022/05/16 01:51:10;;;;;;;3.75;1.13;;;16.40;77.40;;;;;;5047690;28;20040;-79
2022/05/16 01:53:38;;;;;;;6.72;1.50;;;16.40;77.70;;;;;;5042074;28;20033;-79
2022/05/16 01:56:05;;;;;;;8.25;1.33;;;16.40;77.60;;;;;;5058656;28;20034;-78
2022/05/16 01:58:31;;;;;;;5.78;1.60;;;16.40;77.70;;;;;;5044980;28;20052;-76
2022/05/16 02:00:58;;;;;;;8.32;1.52;;;16.40;77.90;;;;;;5028251;28;20369;-76
2022/05/16 02:03:25;;;;;;;6.30;1.30;;;16.40;78.10;;;;;;5042191;28;20028;-77
2022/05/16 02:05:52;;;;;;;5.35;1.23;;;16.40;78.10;;;;;;5036861;28;20056;-77
2022/05/16 02:08:18;;;;;;;5.10;1.20;;;16.30;78.20;;;;;;5020639;28;20507;-77
2022/05/16 02:10:46;;;;;;;4.40;1.25;;;16.30;78.30;;;;;;5021912;28;20037;-77
2022/05/16 02:13:24;;;;;;;4.28;1.10;;;16.30;78.30;;;;;;5021426;28;20025;-77
2022/05/16 02:15:54;;;;;;;6.18;1.40;;;16.30;78.50;;;;;;4984635;28;20121;-76
2022/05/16 02:18:21;;;;;;;5.90;1.27;;;16.20;78.60;;;;;;5018413;28;20033;-77
2022/05/16 02:20:51;;;;;;;6.50;1.55;;;16.20;78.70;;;;;;5008112;28;20385;-78
2022/05/16 02:26:02;;;;;;;6.80;1.48;;;16.20;79.30;;;;;;5034934;28;20033;-78
2022/05/16 02:28:29;;;;;;;5.32;0.80;;;16.20;79.50;;;;;;5022893;28;20017;-78
2022/05/16 02:30:56;;;;;;;6.72;1.63;;;16.20;79.50;;;;;;5023568;28;20033;-78
2022/05/16 02:33:23;;;;;;;4.68;1.27;;;16.20;79.50;;;;;;5026422;28;20041;-78
2022/05/16 02:35:49;;;;;;;7.78;1.58;;;16.10;79.70;;;;;;5018505;28;20014;-78
2022/05/16 02:38:21;;;;;;;6.15;1.58;;;16.10;80.20;;;;;;5023075;28;20389;-78
2022/05/16 02:40:57;;;;;;;7.40;1.92;;;16.10;80.30;;;;;;5027293;28;20034;-78
2022/05/16 02:43:24;;;;;;;3.92;1.20;;;16.10;80.60;;;;;;5026880;28;20041;-78
2022/05/16 02:45:51;;;;;;;8.52;1.67;;;16.00;80.60;;;;;;4992268;28;20582;-78
2022/05/16 02:48:17;;;;;;;7.70;1.90;;;16.00;80.70;;;;;;5024566;28;20029;-77
2022/05/16 02:50:44;;;;;;;7.78;1.60;;;16.00;81.00;;;;;;5010792;28;20393;-78
2022/05/16 02:53:10;;;;;;;4.93;1.70;;;15.90;82.20;;;;;;5024398;28;20021;-77
2022/05/16 02:55:38;;;;;;;8.13;2.22;;;16.00;81.80;;;;;;5008367;28;22843;-77
2022/05/16 02:58:07;;;;;;;5.57;1.17;;;16.00;82.00;;;;;;5024528;28;20029;-77
2022/05/16 03:00:34;;;;;;;5.55;1.35;;;15.90;82.00;;;;;;5027820;28;20037;-78
2022/05/16 03:03:00;;;;;;;7.38;1.55;;;15.90;82.00;;;;;;5027868;28;20033;-78
2022/05/16 03:05:26;;;;;;;11.65;1.80;;;15.90;82.30;;;;;;5019960;28;20048;-78
2022/05/16 03:07:53;;;;;;;7.18;2.03;;;15.90;82.40;;;;;;5039999;28;20018;-78
2022/05/16 03:10:19;;;;;;;7.65;1.92;;;15.90;82.50;;;;;;5047054;28;20028;-78
2022/05/16 03:12:46;;;;;;;5.55;1.45;;;15.90;82.80;;;;;;5013411;28;20033;-78
2022/05/16 03:15:14;;;;;;;6.78;1.50;;;15.90;83.00;;;;;;5049259;28;20029;-78
2022/05/16 03:17:40;;;;;;;6.57;1.70;;;15.90;83.10;;;;;;5026867;28;20424;-78
2022/05/16 03:20:10;;;;;;;7.00;1.58;;;15.80;83.40;;;;;;5055481;28;20362;-78
2022/05/16 03:22:36;;;;;;;7.88;1.60;;;15.80;83.50;;;;;;5043559;28;20669;-78
2022/05/16 03:25:04;;;;;;;6.20;1.50;;;15.80;83.60;;;;;;5044546;28;21366;-78
2022/05/16 03:27:31;;;;;;;4.70;1.38;;;15.80;83.80;;;;;;5042776;28;20024;-78
2022/05/16 03:29:57;;;;;;;4.80;1.45;;;15.70;84.00;;;;;;5027677;28;20032;-77
2022/05/16 03:32:24;;;;;;;10.38;1.75;;;15.70;84.10;;;;;;5026950;28;20033;-78
2022/05/16 03:34:53;;;;;;;10.30;1.92;;;15.70;84.40;;;;;;5028531;28;20029;-78
2022/05/16 03:37:19;;;;;;;5.57;1.30;;;15.70;85.00;;;;;;5042710;28;20041;-77
2022/05/16 03:42:35;;;;;;;6.38;1.65;;;15.60;84.80;;;;;;5046413;28;20104;-77
2022/05/16 03:45:04;;;;;;;6.38;1.65;;;15.60;85.20;;;;;;5010402;28;20037;-78
2022/05/16 03:47:31;;;;;;;10.77;2.33;;;15.60;85.50;;;;;;5042238;28;20033;-78
2022/05/16 03:49:57;;;;;;;10.50;2.13;;;15.60;85.70;;;;;;5048105;28;20665;-78
2022/05/16 03:52:24;;;;;;;10.50;2.05;;;15.50;86.30;;;;;;5042721;28;20477;-78
2022/05/16 03:54:50;;;;;;;9.05;1.90;;;15.60;87.10;;;;;;5047195;28;20025;-77
2022/05/16 03:57:16;;;;;;;6.03;2.03;;;15.60;87.30;;;;;;5042683;28;20036;-78
2022/05/16 03:59:43;;;;;;;7.60;1.92;;;15.60;87.20;;;;;;5042658;28;20033;-77
2022/05/16 04:02:09;;;;;;;4.03;1.17;;;15.60;87.30;;;;;;5014139;28;20037;-78
2022/05/16 04:04:36;;;;;;;7.68;1.60;;;15.60;87.20;;;;;;5043669;28;20056;-78
2022/05/16 04:07:07;;;;;;;5.57;1.75;;;15.60;87.60;;;;;;5042162;28;20498;-78
2022/05/16 04:09:34;;;;;;;4.80;1.33;;;15.50;87.60;;;;;;5026769;28;20468;-77
2022/05/16 04:12:01;;;;;;;6.07;1.42;;;15.60;87.60;;;;;;5043571;28;20045;-77
2022/05/16 04:14:27;;;;;;;5.28;1.38;;;15.60;87.80;;;;;;5012308;28;20036;-78
2022/05/16 04:16:54;;;;;;;4.63;1.25;;;15.60;88.00;;;;;;5022451;28;20044;-77
2022/05/16 04:19:20;;;;;;;4.85;1.65;;;15.60;88.10;;;;;;5043620;28;20036;-78
2022/05/16 04:21:47;;;;;;;5.70;1.63;;;15.60;88.30;;;;;;5043338;28;20377;-77
2022/05/16 04:24:15;;;;;;;6.82;1.80;;;15.60;88.30;;;;;;5027192;28;20032;-78
2022/05/16 04:26:42;;;;;;;8.05;1.75;;;15.60;88.80;;;;;;5041169;28;20017;-77
2022/05/16 04:29:11;;;;;;;8.18;1.33;;;15.60;88.90;;;;;;5044654;28;20029;-77
2022/05/16 04:31:54;;;;;;;4.88;1.42;;;15.60;89.10;;;;;;5044618;28;20503;-79
2022/05/16 04:34:33;;;;;;;6.60;1.58;;;15.60;89.20;;;;;;5059953;28;20040;-80
2022/05/16 04:37:06;;;;;;;7.85;2.10;;;15.70;89.10;;;;;;5040845;28;20036;-78
2022/05/16 04:39:49;;;;;;;6.07;1.85;;;15.80;88.90;;;;;;5043123;28;20037;-78
2022/05/16 04:42:43;;;;;;;8.85;4.07;;;15.90;88.90;;;;;;5011085;28;20037;-78
2022/05/16 04:45:23;;;;;;;7.72;2.70;;;15.90;89.30;;;;;;5019693;28;20388;-78
2022/05/16 04:47:54;;;;;;;5.32;1.90;;;15.90;90.00;;;;;;5040869;28;20506;-78
2022/05/16 04:50:33;;;;;;;3.63;1.40;;;16.00;89.40;;;;;;5042695;28;20502;-78
2022/05/16 04:53:00;;;;;;;8.10;1.80;;;16.00;89.30;;;;;;5042481;28;20037;-77
2022/05/16 04:55:29;;;;;;;8.07;1.55;;;16.10;89.10;;;;;;5041827;28;20020;-77
2022/05/16 04:57:59;;;;;;;6.07;1.48;;;16.20;89.10;;;;;;5039547;28;20040;-77
2022/05/16 05:00:29;;;;;;;6.20;1.80;;;16.40;88.90;;;;;;5042939;28;20040;-77
2022/05/16 05:02:57;;;;;;;4.93;1.40;;;16.50;88.80;;;;;;5044065;28;20048;-77
2022/05/16 05:05:23;;;;;;;6.00;1.65;;;16.60;88.50;;;;;;5041129;28;20128;-77
2022/05/16 05:07:50;;;;;;;6.47;1.70;;;16.70;88.30;;;;;;5038966;28;20059;-78
2022/05/16 05:16:15;;;;;;;6.03;1.92;;;17.00;87.50;;;;;;5043756;28;20050;-78
2022/05/16 05:18:43;;;;;;;7.45;1.70;;;17.20;87.40;;;;;;5044345;28;20040;-78
2022/05/16 05:21:11;;;;;;;5.53;1.63;;;17.30;87.10;;;;;;5044603;28;20040;-78
2022/05/16 05:23:40;;;;;;;5.18;1.45;;;17.40;87.00;;;;;;5059210;28;20385;-78
2022/05/16 05:26:14;;;;;;;5.07;1.30;;;17.60;86.80;;;;;;5026322;28;21190;-78
2022/05/16 05:28:41;;;;;;;7.82;2.30;;;17.70;86.60;;;;;;5046634;28;20489;-78
2022/05/16 05:31:25;;;;;;;2.80;1.15;;;17.80;86.20;;;;;;5043183;28;20056;-78
2022/05/16 05:34:13;;;;;;;5.10;1.42;;;18.00;86.10;;;;;;5046354;28;20045;-77
2022/05/16 05:36:42;;;;;;;5.95;1.25;;;18.10;85.70;;;;;;5042178;28;20013;-75
2022/05/16 05:39:10;;;;;;;7.30;1.75;;;18.30;85.40;;;;;;5044042;28;20032;-75
2022/05/16 05:41:36;;;;;;;4.28;1.30;;;18.40;85.10;;;;;;5030100;28;20043;-79
2022/05/16 05:44:12;;;;;;;7.32;2.05;;;18.60;84.80;;;;;;5062662;28;20036;-80
2022/05/16 05:46:40;;;;;;;6.60;1.83;;;18.70;84.50;;;;;;5041119;28;20975;-78
2022/05/16 05:49:07;;;;;;;5.35;1.77;;;18.90;84.00;;;;;;5044433;28;20025;-77
2022/05/16 05:51:33;;;;;;;7.85;1.92;;;19.10;83.60;;;;;;5043428;28;20028;-77
2022/05/16 05:54:01;;;;;;;4.88;1.35;;;19.20;83.70;;;;;;5027544;28;20036;-77
2022/05/16 05:56:28;;;;;;;7.78;2.20;;;19.30;82.90;;;;;;5038522;28;20323;-76
2022/05/16 05:58:55;;;;;;;7.63;2.15;;;19.40;82.70;;;;;;5027178;28;20025;-77
2022/05/16 06:01:23;;;;;;;5.63;1.45;;;19.40;82.70;;;;;;5039699;28;20465;-79
2022/05/16 06:03:50;;;;;;;8.02;2.03;;;19.30;82.90;;;;;;5045710;28;20039;-79
2022/05/16 06:06:16;;;;;;;8.13;2.05;;;19.20;83.10;;;;;;5057769;28;20071;-78
2022/05/16 06:08:43;;;;;;;5.05;2.05;;;19.10;83.30;;;;;;5027372;28;20044;-78
2022/05/16 06:11:09;;;;;;;9.13;2.25;;;19.00;83.50;;;;;;5043539;28;20491;-78
2022/05/16 06:13:37;;;;;;;4.72;1.88;;;19.00;83.50;;;;;;5030767;28;20036;-80
2022/05/16 06:16:06;;;;;;;3.67;1.60;;;19.10;83.50;;;;;;5049281;28;20031;-80
2022/05/16 06:18:33;;;;;;;5.03;1.27;;;19.20;83.30;;;;;;5026679;28;20052;-79
2022/05/16 06:21:03;;;;;;;6.53;1.42;;;19.30;83.30;;;;;;5063658;28;20423;-78
2022/05/16 06:23:29;;;;;;;5.70;1.98;;;19.30;83.10;;;;;;5036520;28;20409;-78
2022/05/16 06:25:57;;;;;;;5.82;1.77;;;19.30;83.30;;;;;;5061390;28;20565;-78
2022/05/16 06:28:27;;;;;;;6.82;1.88;;;19.10;83.40;;;;;;4996723;28;20028;-78
2022/05/16 06:30:57;;;;;;;6.45;2.13;;;19.10;83.80;;;;;;5016524;28;20040;-78
2022/05/16 06:33:26;;;;;;;6.70;1.92;;;19.00;84.10;;;;;;5045062;28;20041;-78
2022/05/16 06:35:53;;;;;;;6.97;2.15;;;18.90;84.40;;;;;;5062414;28;20044;-78
2022/05/16 06:38:23;;;;;;;8.20;2.10;;;18.80;84.60;;;;;;5042339;28;20800;-78
2022/05/16 06:40:50;;;;;;;5.28;1.73;;;18.80;84.90;;;;;;5063842;28;20040;-78
2022/05/16 06:43:20;;;;;;;6.40;2.25;;;18.80;85.00;;;;;;5043563;28;20044;-79
2022/05/16 06:45:51;;;;;;;7.57;2.50;;;18.80;85.20;;;;;;5040034;28;20036;-78
2022/05/16 06:48:19;;;;;;;7.78;2.13;;;18.80;85.40;;;;;;5058266;28;20027;-77
2022/05/16 06:50:49;;;;;;;7.93;2.53;;;18.90;85.40;;;;;;5047532;28;20120;-78
2022/05/16 06:53:19;;;;;;;7.40;2.45;;;19.00;85.30;;;;;;5029852;28;20506;-78
2022/05/16 06:55:51;;;;;;;8.60;2.08;;;19.20;85.30;;;;;;5052394;28;20043;-78
2022/05/16 06:58:19;;;;;;;6.43;1.95;;;19.40;85.10;;;;;;5058894;28;20043;-78
2022/05/16 07:00:47;;;;;;;7.75;2.55;;;19.70;84.70;;;;;;5049497;28;20404;-78
2022/05/16 07:03:13;;;;;;;6.97;2.20;;;20.10;84.20;;;;;;5059244;28;20033;-78
2022/05/16 07:05:41;;;;;;;6.68;2.15;;;20.60;83.30;;;;;;5058393;28;20056;-78
2022/05/16 07:08:07;;;;;;;6.68;2.08;;;20.80;82.70;;;;;;5028091;28;20033;-79
2022/05/16 07:10:36;;;;;;;5.88;2.58;;;20.90;82.10;;;;;;5046623;28;20033;-79
2022/05/16 07:13:13;;;;;;;5.28;1.60;;;20.90;81.80;;;;;;5031050;28;20035;-79
2022/05/16 07:15:43;;;;;;;5.07;1.73;;;20.80;82.00;;;;;;5058523;28;21394;-79
2022/05/16 07:18:18;;;;;;;6.55;1.95;;;20.80;82.10;;;;;;5033327;28;20463;-79
2022/05/16 07:20:45;;;;;;;5.88;2.20;;;20.70;82.20;;;;;;5029056;28;20044;-79
2022/05/16 07:23:13;;;;;;;12.48;2.35;;;20.70;82.40;;;;;;5062184;28;20041;-79
2022/05/16 07:29:00;;;;;;;3.97;1.63;;;20.90;82.30;;;;;;5034077;28;20040;-79
2022/05/16 07:31:37;;;;;;;4.95;1.90;;;21.10;82.00;;;;;;5047681;28;20041;-79
2022/05/16 07:34:04;;;;;;;6.07;2.25;;;21.20;81.70;;;;;;5033466;28;20496;-79
2022/05/16 07:36:31;;;;;;;6.38;1.52;;;21.50;81.30;;;;;;5011258;28;20037;-79
2022/05/16 07:38:58;;;;;;;8.73;1.65;;;21.70;80.70;;;;;;5041526;28;20511;-79
2022/05/16 07:41:25;;;;;;;7.55;1.92;;;21.90;81.00;;;;;;5044738;28;20036;-78
2022/05/16 07:43:51;;;;;;;8.75;1.92;;;22.10;80.00;;;;;;5064930;28;20043;-78
2022/05/16 07:46:18;;;;;;;6.93;2.13;;;22.20;79.50;;;;;;5029132;28;20032;-78
2022/05/16 07:48:44;;;;;;;5.40;2.10;;;22.30;79.40;;;;;;5045779;28;20457;-78
2022/05/16 07:51:11;;;;;;;4.80;1.63;;;22.30;79.20;;;;;;5047268;28;20035;-78
2022/05/16 07:53:38;;;;;;;8.77;2.38;;;22.30;79.10;;;;;;5049702;28;20509;-78
2022/05/16 07:56:05;;;;;;;5.28;1.75;;;22.30;79.90;;;;;;5032329;28;20047;-78
2022/05/16 07:58:32;;;;;;;5.28;2.22;;;22.20;79.50;;;;;;5049066;28;20139;-78
2022/05/16 08:00:59;;;;;;;8.07;2.30;;;22.20;79.70;;;;;;5049875;28;20024;-78
2022/05/16 08:03:28;;;;;;;7.93;1.98;;;22.10;80.00;;;;;;5028828;28;20040;-78
2022/05/16 08:05:55;;;;;;;6.53;1.95;;;22.20;80.30;;;;;;5063048;28;20958;-78
2022/05/16 08:11:09;;;;;;;6.05;1.80;;;22.20;79.80;;;;;;5047506;28;20016;-79
2022/05/16 08:13:37;;;;;;;7.90;1.80;;;22.30;79.60;;;;;;5029147;28;20514;-79
2022/05/16 08:16:03;;;;;;;8.07;2.33;;;22.40;79.50;;;;;;5063490;28;20052;-78
2022/05/16 08:18:30;;;;;;;8.30;2.25;;;22.40;79.30;;;;;;5046252;28;20041;-79
2022/05/16 08:20:56;;;;;;;6.88;2.10;;;22.50;79.10;;;;;;5048704;28;20036;-77
2022/05/16 08:23:26;;;;;;;6.90;1.83;;;22.60;78.80;;;;;;5030527;28;20032;-78
2022/05/16 08:25:55;;;;;;;5.47;1.98;;;22.70;78.70;;;;;;5046738;28;20024;-78
2022/05/16 08:28:22;;;;;;;4.63;1.83;;;22.90;78.40;;;;;;5043848;28;20037;-78
2022/05/16 08:30:50;;;;;;;8.90;1.83;;;23.20;78.20;;;;;;5050838;28;20028;-79
2022/05/16 08:33:16;;;;;;;9.05;2.17;;;23.50;77.50;;;;;;5029170;28;20016;-77
2022/05/16 08:35:43;;;;;;;6.75;1.52;;;23.60;77.20;;;;;;5030765;28;20016;-77
2022/05/16 08:41:09;;;;;;;6.55;1.55;;;23.90;76.10;;;;;;5065710;28;20028;-77
2022/05/16 08:43:58;;;;;;;4.37;1.47;;;24.00;76.00;;;;;;5063427;28;20029;-78
2022/05/16 08:46:35;;;;;;;5.97;1.70;;;24.10;75.90;;;;;;5025362;28;20475;-79
2022/05/16 08:49:46;;;;;;;4.80;1.65;;;24.10;75.80;;;;;;5065747;28;20033;-78
2022/05/16 08:52:48;;;;;;;4.18;1.42;;;24.20;76.00;;;;;;5055109;28;20033;-78
2022/05/16 08:55:46;;;;;;;7.43;2.38;;;24.20;75.90;;;;;;5064556;28;20028;-78
2022/05/16 08:58:29;;;;;;;6.78;3.33;;;24.20;75.90;;;;;;5006405;28;20048;-78
2022/05/16 09:01:26;;;;;;;4.97;1.83;;;24.10;76.10;;;;;;5063740;28;20033;-78
2022/05/16 09:04:30;;;;;;;5.47;1.77;;;24.10;75.80;;;;;;5048891;28;20131;-77
2022/05/16 09:07:34;;;;;;;4.32;1.50;;;24.20;75.90;;;;;;5062167;28;20360;-77
2022/05/16 09:10:19;;;;;;;6.70;2.25;;;24.40;75.80;;;;;;5029330;28;20028;-76
2022/05/16 09:12:49;;;;;;;5.63;2.00;;;24.80;75.00;;;;;;5063682;28;20036;-78
2022/05/16 09:15:43;;;;;;;13.30;2.67;;;25.20;74.10;;;;;;5047894;28;20044;-79
2022/05/16 09:18:33;;;;;;;8.98;2.15;;;25.40;73.50;;;;;;5062235;28;20028;-78
2022/05/16 09:21:21;;;;;;;3.83;1.60;;;25.50;73.10;;;;;;5046955;28;20032;-78
2022/05/16 09:24:00;;;;;;;6.15;1.60;;;25.70;73.10;;;;;;5029994;28;20534;-79
2022/05/16 09:26:49;;;;;;;4.57;1.48;;;25.90;72.80;;;;;;5051633;28;20043;-79
2022/05/16 09:33:37;;;;;;;4.85;1.77;;;26.40;72.30;;;;;;5054350;28;20048;-79
2022/05/16 09:36:42;;;;;;;6.60;2.20;;;27.00;71.20;;;;;;5026482;28;20399;-78
2022/05/16 09:39:33;;;;;;;6.55;2.17;;;27.70;69.70;;;;;;5049578;28;20036;-78
2022/05/16 09:42:31;;;;;;;5.88;1.50;;;28.10;68.30;;;;;;5050219;28;20028;-79
2022/05/16 09:45:23;;;;;;;6.07;1.80;;;28.20;67.50;;;;;;5028858;28;20039;-78
2022/05/16 09:48:28;;;;;;;5.65;1.60;;;28.30;66.80;;;;;;5046523;28;20449;-78
2022/05/16 09:51:07;;;;;;;5.05;1.50;;;28.50;66.70;;;;;;5039221;28;20024;-78
2022/05/16 09:54:09;;;;;;;7.43;1.35;;;28.50;66.00;;;;;;5034126;28;20035;-79
2022/05/16 09:56:37;;;;;;;5.32;1.42;;;28.40;65.70;;;;;;5028473;28;20041;-79
2022/05/16 09:59:33;;;;;;;6.30;1.60;;;28.20;65.20;;;;;;5048351;28;20024;-79
2022/05/16 10:02:55;;;;;;;4.88;1.30;;;27.90;65.50;;;;;;5046675;28;20033;-78
2022/05/16 10:05:31;;;;;;;6.38;1.50;;;27.60;66.10;;;;;;5009867;28;20037;-78
2022/05/16 10:08:14;;;;;;;3.72;1.20;;;27.50;66.70;;;;;;5027269;28;20065;-77
2022/05/16 10:10:49;;;;;;;3.65;1.42;;;27.60;66.50;;;;;;5043403;28;20041;-77
2022/05/16 10:13:17;;;;;;;3.72;1.50;;;27.80;66.20;;;;;;5030200;28;20028;-76
2022/05/16 10:16:18;;;;;;;4.60;1.20;;;27.90;65.20;;;;;;5040309;28;20072;-78
2022/05/16 10:18:56;;;;;;;4.70;1.70;;;27.90;65.70;;;;;;5042443;28;20033;-80
2022/05/16 10:25:39;;;;;;;3.40;1.02;;;28.50;64.80;;;;;;4994640;28;20045;-79
2022/05/16 10:28:24;;;;;;;2.78;0.90;;;28.80;64.20;;;;;;5036298;28;20710;-80
2022/05/16 10:36:33;;;;;;;5.63;1.30;;;29.20;63.30;;;;;;5002261;28;20026;-80
2022/05/16 10:39:44;;;;;;;4.35;1.20;;;29.60;63.40;;;;;;4989364;28;20029;-81
2022/05/16 10:42:54;;;;;;;3.78;1.33;;;29.90;62.10;;;;;;4986039;28;20417;-81
2022/05/16 10:45:25;;;;;;;3.92;0.95;;;30.30;61.60;;;;;;5013733;28;20037;-79
2022/05/16 10:48:00;;;;;;;3.90;0.90;;;30.50;60.80;;;;;;5040766;28;20029;-79
2022/05/16 10:50:43;;;;;;;7.40;1.58;;;30.70;60.10;;;;;;5043939;28;20602;-82
2022/05/16 10:53:32;;;;;;;9.10;1.45;;;30.70;59.20;;;;;;5029324;28;20469;-80
2022/05/16 10:56:22;;;;;;;3.33;1.33;;;30.70;59.50;;;;;;5058298;28;20396;-81
2022/05/16 10:59:19;;;;;;;5.97;1.23;;;30.80;59.80;;;;;;5045895;28;20039;-81
2022/05/16 11:02:27;;;;;;;3.72;1.00;;;30.80;59.50;;;;;;5051445;28;20067;-79
2022/05/16 11:05:15;;;;;;;5.63;1.30;;;30.90;59.50;;;;;;5026166;28;20049;-82
2022/05/16 11:07:52;;;;;;;5.53;2.30;;;31.00;59.10;;;;;;5053923;28;20059;-82
2022/05/16 11:10:23;;;;;;;5.35;2.83;;;31.00;58.60;;;;;;5054010;28;20040;-84
2022/05/16 11:13:11;;;;;;;4.07;1.25;;;31.00;58.60;;;;;;5032087;28;20954;-85
2022/05/16 11:15:46;;;;;;;5.45;1.30;;;31.30;58.60;;;;;;5052273;28;20044;-86
2022/05/16 11:18:56;;;;;;;4.60;1.58;;;31.90;57.20;;;;;;5018584;28;20060;-85
2022/05/16 11:21:49;;;;;;;5.55;1.08;;;32.00;56.20;;;;;;5064352;28;20033;-85
2022/05/16 11:24:32;;;;;;;5.32;1.15;;;31.70;56.40;;;;;;5049307;28;20538;-85
2022/05/16 11:27:17;;;;;;;6.63;1.35;;;31.50;56.30;;;;;;5048678;28;20044;-85
2022/05/16 11:30:05;;;;;;;4.28;1.38;;;31.20;56.70;;;;;;5068747;28;20037;-84
2022/05/16 11:32:41;;;;;;;2.85;1.40;;;31.00;57.10;;;;;;5049999;28;20040;-86
2022/05/16 11:35:45;;;;;;;4.93;1.63;;;30.90;57.50;;;;;;5052647;28;20021;-83
2022/05/16 11:38:46;;;;;;;4.90;2.42;;;30.60;58.00;;;;;;5060726;28;20037;-83
2022/05/16 11:41:52;;;;;;;3.70;1.83;;;30.20;58.10;;;;;;5048194;28;20040;-83
2022/05/16 11:45:03;;;;;;;5.50;1.90;;;29.90;58.80;;;;;;5046188;28;20048;-83
2022/05/16 11:47:44;;;;;;;4.13;1.38;;;29.60;59.40;;;;;;4989647;28;20033;-81
2022/05/16 11:50:22;;;;;;;6.95;1.60;;;29.40;60.00;;;;;;4999938;28;20049;-81
2022/05/16 12:02:47;;;;;;;2.88;1.30;;;28.40;61.90;;;;;;5023701;28;20045;-83
2022/05/16 12:06:16;;;;;;;11.27;2.85;;;28.10;62.30;;;;;;5025084;28;20032;-86
2022/05/16 12:08:49;;;;;;;14.82;3.17;;;27.70;67.10;;;;;;5026406;28;20842;-83
2022/05/16 12:11:46;;;;;;;9.27;2.70;;;26.90;73.00;;;;;;5023650;28;20446;-83
2022/05/16 12:14:41;;;;;;;4.03;2.30;;;26.10;76.50;;;;;;5005112;28;20045;-83
2022/05/16 12:17:26;;;;;;;5.47;3.03;;;25.70;79.30;;;;;;5017529;28;20049;-81
2022/05/16 12:19:58;;;;;;;6.78;2.90;;;25.60;80.50;;;;;;5021165;28;20030;-81
2022/05/16 12:22:59;;;;;;;5.15;1.95;;;25.70;82.00;;;;;;5006625;28;20049;-82
2022/05/16 12:25:35;;;;;;;6.40;2.40;;;26.30;82.60;;;;;;5036945;28;20041;-81
2022/05/16 12:28:23;;;;;;;3.95;1.40;;;26.70;82.20;;;;;;5019264;28;20053;-81
2022/05/16 12:32:01;;;;;;;4.38;1.65;;;26.80;81.30;;;;;;5015789;28;20424;-82
2022/05/16 12:34:59;;;;;;;6.07;2.65;;;26.90;81.30;;;;;;5033771;28;20405;-82
2022/05/16 12:37:33;;;;;;;7.97;3.50;;;27.00;80.10;;;;;;5005298;28;20048;-82
2022/05/16 12:40:27;;;;;;;4.25;2.47;;;26.90;79.80;;;;;;5022497;28;23315;-83
2022/05/16 12:43:21;;;;;;;4.75;2.45;;;26.60;79.80;;;;;;5044931;28;20408;-83
2022/05/16 12:46:23;;;;;;;3.97;2.08;;;26.50;80.50;;;;;;5058625;28;20044;-82
2022/05/16 12:49:12;;;;;;;5.05;2.20;;;26.40;80.60;;;;;;5043705;28;20025;-82
2022/05/16 12:51:55;;;;;;;6.82;2.72;;;26.40;80.90;;;;;;4964730;28;20465;-83
2022/05/16 12:54:51;;;;;;;4.68;1.98;;;26.30;80.90;;;;;;5028563;28;20045;-82
2022/05/16 12:57:41;;;;;;;5.15;2.20;;;26.30;80.80;;;;;;5039299;28;20037;-83
2022/05/16 13:00:35;;;;;;;3.88;1.58;;;26.20;80.90;;;;;;5045334;28;20028;-82
2022/05/16 13:03:45;;;;;;;6.72;2.15;;;26.10;81.00;;;;;;5060366;28;20043;-83
2022/05/16 13:07:02;;;;;;;4.63;2.25;;;25.80;81.30;;;;;;5034690;28;20041;-83
2022/05/16 13:10:09;;;;;;;;;;;;;;;;;;;;;
2022/05/16 13:13:39;;;;;;;5.70;2.70;;;25.30;82.80;;;;;;5039549;28;20063;-85
2022/05/16 13:16:30;;;;;;;3.92;2.47;;;25.10;84.00;;;;;;4932487;28;20487;-81
2022/05/16 13:19:10;;;;;;;6.18;4.03;;;25.10;84.70;;;;;;4961199;28;20049;-80
2022/05/16 13:21:54;;;;;;;5.95;3.42;;;25.30;85.70;;;;;;4941150;28;20391;-85
2022/05/16 13:24:44;;;;;;;5.82;2.58;;;25.40;85.90;;;;;;4958080;28;20033;-84
2022/05/16 13:30:55;;;;;;;5.78;3.45;;;26.00;85.10;;;;;;4912068;28;20584;-84
2022/05/16 13:34:09;;;;;;;7.72;5.38;;;25.90;84.80;;;;;;4961671;28;20042;-84
2022/05/16 13:37:44;;;;;;;8.07;6.57;;;25.60;84.80;;;;;;4916605;29;20035;-85
2022/05/16 13:40:42;;;;;;;8.73;6.15;;;25.20;85.30;;;;;;4927936;28;20745;-85
2022/05/16 13:43:48;;;;;;;6.70;5.20;;;25.00;85.40;;;;;;4912163;29;20047;-85
2022/05/16 13:47:06;;;;;;;7.28;5.47;;;24.90;85.30;;;;;;4870843;29;20540;-85
2022/05/16 13:50:32;;;;;;;12.65;5.93;;;24.80;86.10;;;;;;4794547;29;20045;-85
2022/05/16 13:53:28;;;;;;;7.70;4.68;;;24.50;86.70;;;;;;4805302;29;20038;-85
2022/05/16 13:56:56;;;;;;;10.02;4.70;;;24.50;87.10;;;;;;4754155;30;20061;-82
2022/05/16 13:59:29;;;;;;;7.55;4.20;;;24.60;86.40;;;;;;4789628;29;20036;-83
2022/05/16 14:02:58;;;;;;;7.75;4.20;;;24.50;85.20;;;;;;4780422;29;20729;-83
2022/05/16 14:06:21;;;;;;;10.80;7.00;;;24.30;84.60;;;;;;4793025;29;20078;-82
2022/05/16 14:09:23;;;;;;;9.15;4.97;;;24.00;84.10;;;;;;4786475;29;20043;-83
2022/05/16 14:11:56;;;;;;;7.25;3.35;;;23.70;84.00;;;;;;4768601;29;20047;-83
2022/05/16 14:15:00;;;;;;;6.97;3.42;;;23.50;84.70;;;;;;4760773;29;20024;-83
2022/05/16 14:18:42;;;;;;;8.52;2.88;;;23.40;85.80;;;;;;4757281;30;20056;-82
2022/05/16 14:21:45;;;;;;;8.90;3.30;;;23.30;85.50;;;;;;4900463;28;20470;-83
2022/05/16 14:24:22;;;;;;;7.22;3.35;;;23.20;85.50;;;;;;4979365;28;20519;-83
2022/05/16 14:26:56;;;;;;;8.25;3.67;;;23.20;86.30;;;;;;4977388;28;20057;-83
2022/05/16 14:30:34;;;;;;;7.55;3.00;;;23.10;86.60;;;;;;4994449;28;20030;-84
2022/05/16 14:33:14;;;;;;;9.07;3.83;;;23.10;87.90;;;;;;4983543;28;21359;-84